Frances Anne — WDE8555 — position and weather

sailwx.info

Track history (hours):
 
Tides and Currents Weather Stations Pressure Air Temp Water Temp Dewpoint Dewpoint Depression Visibility Wind Speed Wind Dir Waves Ship Positions

Frances Anne

Owner: Frances Anne Inc., West Creek, NJ. More information available from US FCC via Universal Licensing System and Coast Guard Vessel Documentation Center.

Last reported at 2015-Jul-01 10:32 UTC. Time now 2015-Jul-04 13:39 UTC.
Position N 39°36' W 074°11'.

Type: Fishing. MMSI: 367406910.

Date/timePositionNaut miles runAvg speedWind from/ knotsBaromVisibWave heightAir tempDewpointWater temp
2015-Jul-01 10:32N 39°36' W 074°11'8 8.3
2015-Jul-01 09:33N 39°43' W 074°06'2 2.2
2015-Jul-01 08:29N 39°46' W 074°07'0 0.0
2015-Jul-01 07:29N 39°46' W 074°07'0 0.0
2015-Jul-01 06:11N 39°46' W 074°07'0 0.0
2015-Jul-01 05:23N 39°46' W 074°07'0 0.0
2015-Jul-01 04:29N 39°46' W 074°07'0 0.0
2015-Jul-01 03:32N 39°46' W 074°07'0 0.0
2015-Jul-01 02:29N 39°46' W 074°07'0 0.0
2015-Jul-01 01:33N 39°46' W 074°07'0 0.0
2015-Jul-01 00:32N 39°46' W 074°07'0 0.0
2015-Jun-30 23:32N 39°46' W 074°07'0 0.0
2015-Jun-30 22:17N 39°46' W 074°07'0 0.0
2015-Jun-30 21:29N 39°46' W 074°07'0 0.0
2015-Jun-30 20:29N 39°46' W 074°07'0 0.0
2015-Jun-30 19:23N 39°46' W 074°07'0 0.0
2015-Jun-30 18:30N 39°46' W 074°07'0 0.0
2015-Jun-30 17:29N 39°46' W 074°07'0 0.0
2015-Jun-30 15:24N 39°46' W 074°07'0 0.0
2015-Jun-30 14:30N 39°46' W 074°07'0 0.0
2015-Jun-30 13:29N 39°46' W 074°07'0 0.0
2015-Jun-30 12:33N 39°46' W 074°07'0 0.0
2015-Jun-30 11:33N 39°46' W 074°07'0 0.0
2015-Jun-30 10:29N 39°46' W 074°07'0 0.0
2015-Jun-30 09:32N 39°46' W 074°07'0 0.0
2015-Jun-30 07:11N 39°46' W 074°07'0 0.0
2015-Jun-29 23:18N 39°46' W 074°07'0 0.0
2015-Jun-29 22:23N 39°46' W 074°07'0 0.0
2015-Jun-29 21:29N 39°46' W 074°07'0 0.0
2015-Jun-29 20:29N 39°46' W 074°07'0 0.0
2015-Jun-29 19:23N 39°46' W 074°07'0 0.0
2015-Jun-29 18:30N 39°46' W 074°07'0 0.0
2015-Jun-29 17:29N 39°46' W 074°07'0 0.0
2015-Jun-29 16:29N 39°46' W 074°07'0 0.0
2015-Jun-29 05:30N 39°46' W 074°07'0 0.0
2015-Jun-29 04:29N 39°46' W 074°07'0 0.0
2015-Jun-29 03:29N 39°46' W 074°07'0 0.0
2015-Jun-29 02:30N 39°46' W 074°07'0 0.0
2015-Jun-29 01:29N 39°46' W 074°07'0 0.0
2015-Jun-29 00:05N 39°46' W 074°07'0 0.0
2015-Jun-28 23:17N 39°46' W 074°07'0 0.0
2015-Jun-28 22:17N 39°46' W 074°07'0 0.0
2015-Jun-28 21:30N 39°46' W 074°07'0 0.0
2015-Jun-28 20:29N 39°46' W 074°07'0 0.0
2015-Jun-28 19:24N 39°46' W 074°07'0 0.0
2015-Jun-28 18:23N 39°46' W 074°07'0 0.0
2015-Jun-28 17:29N 39°46' W 074°07'0 0.0
2015-Jun-28 16:23N 39°46' W 074°07'0 0.1
2015-Jun-28 15:21N 39°46' W 074°07'0 0.0
2015-Jun-28 14:27N 39°46' W 074°07'0 0.0
2015-Jun-28 13:21N 39°46' W 074°07'0 0.0
2015-Jun-28 12:27N 39°46' W 074°07'0 0.0
2015-Jun-28 11:33N 39°46' W 074°07'0 0.0
2015-Jun-28 10:33N 39°46' W 074°07'0 0.0
2015-Jun-28 09:27N 39°46' W 074°07'0 0.0
2015-Jun-28 08:27N 39°46' W 074°07'0 0.0
2015-Jun-28 07:33N 39°46' W 074°07'0 0.0
2015-Jun-28 06:33N 39°46' W 074°07'0 0.0
2015-Jun-28 05:33N 39°46' W 074°07'0 0.0
2015-Jun-28 04:33N 39°46' W 074°07'0 0.0
2015-Jun-28 03:33N 39°46' W 074°07'0 0.0
2015-Jun-28 02:33N 39°46' W 074°07'0 0.0
2015-Jun-28 01:33N 39°46' W 074°07'0 0.0
2015-Jun-28 00:33N 39°46' W 074°07'0 0.0
2015-Jun-27 23:33N 39°46' W 074°07'0 0.0
2015-Jun-27 22:33N 39°46' W 074°07'0 0.0
2015-Jun-27 21:27N 39°46' W 074°07'0 0.0
2015-Jun-27 20:21N 39°46' W 074°07'0 0.0
2015-Jun-27 17:30N 39°46' W 074°07'0 0.0
2015-Jun-27 15:30N 39°46' W 074°07'3 3.4
2015-Jun-27 14:33N 39°45' W 074°03'15 7.3
2015-Jun-27 12:33N 39°43' W 073°44'7 7.3
2015-Jun-27 11:32N 39°42' W 073°34'8 7.3
2015-Jun-27 10:28N 39°41' W 073°24'7 7.1
2015-Jun-27 09:31N 39°40' W 073°15'7 7.3
2015-Jun-27 08:33N 39°39' W 073°06'7 7.2
2015-Jun-27 07:33N 39°38' W 072°57'7 7.3
2015-Jun-27 06:33N 39°37' W 072°48'7 7.2
2015-Jun-27 05:33N 39°36' W 072°39'7 7.1
2015-Jun-27 04:33N 39°35' W 072°29'7 4.9
2015-Jun-27 03:09N 39°33' W 072°21'1 1.5
2015-Jun-27 02:20N 39°34' W 072°22'3 3.3
2015-Jun-27 01:31N 39°37' W 072°22'2 2.1
2015-Jun-27 00:33N 39°35' W 072°22'2 2.3
2015-Jun-26 23:32N 39°33' W 072°20'4 2.8
2015-Jun-26 22:09N 39°36' W 072°22'2 0.9
2015-Jun-26 19:33N 39°34' W 072°22'1 0.2
2015-Jun-26 17:29N 39°34' W 072°22'4 0.6
2015-Jun-26 09:31N 39°35' W 072°16'0 0.3
2015-Jun-26 08:28N 39°35' W 072°16'1 0.3
2015-Jun-26 06:31N 39°35' W 072°17'0 0.2
2015-Jun-26 05:31N 39°34' W 072°17'0 0.2
2015-Jun-26 04:31N 39°34' W 072°17'0 0.3
2015-Jun-26 03:33N 39°34' W 072°17'0 0.3
2015-Jun-26 02:31N 39°34' W 072°16'3 2.9
2015-Jun-26 01:33N 39°33' W 072°20'1 0.6
2015-Jun-26 00:33N 39°33' W 072°21'2 2.1
2015-Jun-25 23:33N 39°35' W 072°22'3 2.6
2015-Jun-25 22:33N 39°38' W 072°22'3 3.1
2015-Jun-25 21:32N 39°34' W 072°22'1 0.4
2015-Jun-25 17:22N 39°33' W 072°21'3 3.3
2015-Jun-25 16:23N 39°33' W 072°17'3 3.5
2015-Jun-25 15:26N 39°33' W 072°12'4 3.2
2015-Jun-25 14:17N 39°36' W 072°09'1 2.0
2015-Jun-25 13:33N 39°34' W 072°10'1 0.6
2015-Jun-25 11:21N 39°36' W 072°10'4 1.4
2015-Jun-25 08:09N 39°34' W 072°15'1 0.4
2015-Jun-25 06:33N 39°34' W 072°14'1 0.6
2015-Jun-25 05:32N 39°35' W 072°14'2 1.8
2015-Jun-25 04:32N 39°35' W 072°16'3 3.0
2015-Jun-25 03:28N 39°33' W 072°19'2 2.0
2015-Jun-25 02:33N 39°34' W 072°21'3 3.4
2015-Jun-25 01:33N 39°33' W 072°17'4 2.9
2015-Jun-25 00:16N 39°33' W 072°12'1 1.3
2015-Jun-24 23:25N 39°34' W 072°11'6 5.6
2015-Jun-24 22:24N 39°33' W 072°18'0 0.4
2015-Jun-24 21:29N 39°33' W 072°19'3 1.1
2015-Jun-24 18:28N 39°32' W 072°15'5 5.7
2015-Jun-24 17:30N 39°33' W 072°22'8 1.1
2015-Jun-24 10:18N 39°32' W 072°12'1 0.9
2015-Jun-24 09:25N 39°33' W 072°12'1 1.1
2015-Jun-24 08:29N 39°34' W 072°12'3 3.2
2015-Jun-24 07:33N 39°32' W 072°09'1 0.8
2015-Jun-24 06:31N 39°33' W 072°10'3 0.4
2015-Jun-23 23:22N 39°35' W 072°10'5 2.7
2015-Jun-23 21:27N 39°32' W 072°16'5 2.7
2015-Jun-23 19:30N 39°36' W 072°21'0 0.8
2015-Jun-23 19:05N 39°36' W 072°21'8 0.3
2015-Jun-22 17:29N 39°33' W 072°11'4 3.2
2015-Jun-22 16:18N 39°37' W 072°08'8 2.8
2015-Jun-22 13:32N 39°32' W 072°17'  
Track history (hours):
 
Tides and Currents Weather Stations Pressure Air Temp Water Temp Dewpoint Dewpoint Depression Visibility Wind Speed Wind Dir Waves Ship Positions

Frances Anne

Owner: Frances Anne Inc., West Creek, NJ. More information available from US FCC via Universal Licensing System and Coast Guard Vessel Documentation Center.

Last reported at 2015-Jul-01 10:32 UTC. Time now 2015-Jul-04 13:39 UTC.
Position N 39°36' W 074°11'.

Type: Fishing. MMSI: 367406910.

Date/timePositionNaut miles runAvg speedWind from/ knotsBaromVisibWave heightAir tempDewpointWater temp
2015-Jul-01 10:32N 39°36' W 074°11'8 8.3
2015-Jul-01 09:33N 39°43' W 074°06'2 2.2
2015-Jul-01 08:29N 39°46' W 074°07'0 0.0
2015-Jul-01 07:29N 39°46' W 074°07'0 0.0
2015-Jul-01 06:11N 39°46' W 074°07'0 0.0
2015-Jul-01 05:23N 39°46' W 074°07'0 0.0
2015-Jul-01 04:29N 39°46' W 074°07'0 0.0
2015-Jul-01 03:32N 39°46' W 074°07'0 0.0
2015-Jul-01 02:29N 39°46' W 074°07'0 0.0
2015-Jul-01 01:33N 39°46' W 074°07'0 0.0
2015-Jul-01 00:32N 39°46' W 074°07'0 0.0
2015-Jun-30 23:32N 39°46' W 074°07'0 0.0
2015-Jun-30 22:17N 39°46' W 074°07'0 0.0
2015-Jun-30 21:29N 39°46' W 074°07'0 0.0
2015-Jun-30 20:29N 39°46' W 074°07'0 0.0
2015-Jun-30 19:23N 39°46' W 074°07'0 0.0
2015-Jun-30 18:30N 39°46' W 074°07'0 0.0
2015-Jun-30 17:29N 39°46' W 074°07'0 0.0
2015-Jun-30 15:24N 39°46' W 074°07'0 0.0
2015-Jun-30 14:30N 39°46' W 074°07'0 0.0
2015-Jun-30 13:29N 39°46' W 074°07'0 0.0
2015-Jun-30 12:33N 39°46' W 074°07'0 0.0
2015-Jun-30 11:33N 39°46' W 074°07'0 0.0
2015-Jun-30 10:29N 39°46' W 074°07'0 0.0
2015-Jun-30 09:32N 39°46' W 074°07'0 0.0
2015-Jun-30 07:11N 39°46' W 074°07'0 0.0
2015-Jun-29 23:18N 39°46' W 074°07'0 0.0
2015-Jun-29 22:23N 39°46' W 074°07'0 0.0
2015-Jun-29 21:29N 39°46' W 074°07'0 0.0
2015-Jun-29 20:29N 39°46' W 074°07'0 0.0
2015-Jun-29 19:23N 39°46' W 074°07'0 0.0
2015-Jun-29 18:30N 39°46' W 074°07'0 0.0
2015-Jun-29 17:29N 39°46' W 074°07'0 0.0
2015-Jun-29 16:29N 39°46' W 074°07'0 0.0
2015-Jun-29 05:30N 39°46' W 074°07'0 0.0
2015-Jun-29 04:29N 39°46' W 074°07'0 0.0
2015-Jun-29 03:29N 39°46' W 074°07'0 0.0
2015-Jun-29 02:30N 39°46' W 074°07'0 0.0
2015-Jun-29 01:29N 39°46' W 074°07'0 0.0
2015-Jun-29 00:05N 39°46' W 074°07'0 0.0
2015-Jun-28 23:17N 39°46' W 074°07'0 0.0
2015-Jun-28 22:17N 39°46' W 074°07'0 0.0
2015-Jun-28 21:30N 39°46' W 074°07'0 0.0
2015-Jun-28 20:29N 39°46' W 074°07'0 0.0
2015-Jun-28 19:24N 39°46' W 074°07'0 0.0
2015-Jun-28 18:23N 39°46' W 074°07'0 0.0
2015-Jun-28 17:29N 39°46' W 074°07'0 0.0
2015-Jun-28 16:23N 39°46' W 074°07'0 0.1
2015-Jun-28 15:21N 39°46' W 074°07'0 0.0
2015-Jun-28 14:27N 39°46' W 074°07'0 0.0
2015-Jun-28 13:21N 39°46' W 074°07'0 0.0
2015-Jun-28 12:27N 39°46' W 074°07'0 0.0
2015-Jun-28 11:33N 39°46' W 074°07'0 0.0
2015-Jun-28 10:33N 39°46' W 074°07'0 0.0
2015-Jun-28 09:27N 39°46' W 074°07'0 0.0
2015-Jun-28 08:27N 39°46' W 074°07'0 0.0
2015-Jun-28 07:33N 39°46' W 074°07'0 0.0
2015-Jun-28 06:33N 39°46' W 074°07'0 0.0
2015-Jun-28 05:33N 39°46' W 074°07'0 0.0
2015-Jun-28 04:33N 39°46' W 074°07'0 0.0
2015-Jun-28 03:33N 39°46' W 074°07'0 0.0
2015-Jun-28 02:33N 39°46' W 074°07'0 0.0
2015-Jun-28 01:33N 39°46' W 074°07'0 0.0
2015-Jun-28 00:33N 39°46' W 074°07'0 0.0
2015-Jun-27 23:33N 39°46' W 074°07'0 0.0
2015-Jun-27 22:33N 39°46' W 074°07'0 0.0
2015-Jun-27 21:27N 39°46' W 074°07'0 0.0
2015-Jun-27 20:21N 39°46' W 074°07'0 0.0
2015-Jun-27 17:30N 39°46' W 074°07'0 0.0
2015-Jun-27 15:30N 39°46' W 074°07'3 3.4
2015-Jun-27 14:33N 39°45' W 074°03'15 7.3
2015-Jun-27 12:33N 39°43' W 073°44'7 7.3
2015-Jun-27 11:32N 39°42' W 073°34'8 7.3
2015-Jun-27 10:28N 39°41' W 073°24'7 7.1
2015-Jun-27 09:31N 39°40' W 073°15'7 7.3
2015-Jun-27 08:33N 39°39' W 073°06'7 7.2
2015-Jun-27 07:33N 39°38' W 072°57'7 7.3
2015-Jun-27 06:33N 39°37' W 072°48'7 7.2
2015-Jun-27 05:33N 39°36' W 072°39'7 7.1
2015-Jun-27 04:33N 39°35' W 072°29'7 4.9
2015-Jun-27 03:09N 39°33' W 072°21'1 1.5
2015-Jun-27 02:20N 39°34' W 072°22'3 3.3
2015-Jun-27 01:31N 39°37' W 072°22'2 2.1
2015-Jun-27 00:33N 39°35' W 072°22'2 2.3
2015-Jun-26 23:32N 39°33' W 072°20'4 2.8
2015-Jun-26 22:09N 39°36' W 072°22'2 0.9
2015-Jun-26 19:33N 39°34' W 072°22'1 0.2
2015-Jun-26 17:29N 39°34' W 072°22'4 0.6
2015-Jun-26 09:31N 39°35' W 072°16'0 0.3
2015-Jun-26 08:28N 39°35' W 072°16'1 0.3
2015-Jun-26 06:31N 39°35' W 072°17'0 0.2
2015-Jun-26 05:31N 39°34' W 072°17'0 0.2
2015-Jun-26 04:31N 39°34' W 072°17'0 0.3
2015-Jun-26 03:33N 39°34' W 072°17'0 0.3
2015-Jun-26 02:31N 39°34' W 072°16'3 2.9
2015-Jun-26 01:33N 39°33' W 072°20'1 0.6
2015-Jun-26 00:33N 39°33' W 072°21'2 2.1
2015-Jun-25 23:33N 39°35' W 072°22'3 2.6
2015-Jun-25 22:33N 39°38' W 072°22'3 3.1
2015-Jun-25 21:32N 39°34' W 072°22'1 0.4
2015-Jun-25 17:22N 39°33' W 072°21'3 3.3
2015-Jun-25 16:23N 39°33' W 072°17'3 3.5
2015-Jun-25 15:26N 39°33' W 072°12'4 3.2
2015-Jun-25 14:17N 39°36' W 072°09'1 2.0
2015-Jun-25 13:33N 39°34' W 072°10'1 0.6
2015-Jun-25 11:21N 39°36' W 072°10'4 1.4
2015-Jun-25 08:09N 39°34' W 072°15'1 0.4
2015-Jun-25 06:33N 39°34' W 072°14'1 0.6
2015-Jun-25 05:32N 39°35' W 072°14'2 1.8
2015-Jun-25 04:32N 39°35' W 072°16'3 3.0
2015-Jun-25 03:28N 39°33' W 072°19'2 2.0
2015-Jun-25 02:33N 39°34' W 072°21'3 3.4
2015-Jun-25 01:33N 39°33' W 072°17'4 2.9
2015-Jun-25 00:16N 39°33' W 072°12'1 1.3
2015-Jun-24 23:25N 39°34' W 072°11'6 5.6
2015-Jun-24 22:24N 39°33' W 072°18'0 0.4
2015-Jun-24 21:29N 39°33' W 072°19'3 1.1
2015-Jun-24 18:28N 39°32' W 072°15'5 5.7
2015-Jun-24 17:30N 39°33' W 072°22'8 1.1
2015-Jun-24 10:18N 39°32' W 072°12'1 0.9
2015-Jun-24 09:25N 39°33' W 072°12'1 1.1
2015-Jun-24 08:29N 39°34' W 072°12'3 3.2
2015-Jun-24 07:33N 39°32' W 072°09'1 0.8
2015-Jun-24 06:31N 39°33' W 072°10'3 0.4
2015-Jun-23 23:22N 39°35' W 072°10'5 2.7
2015-Jun-23 21:27N 39°32' W 072°16'5 2.7
2015-Jun-23 19:30N 39°36' W 072°21'0 0.8
2015-Jun-23 19:05N 39°36' W 072°21'8 0.3
2015-Jun-22 17:29N 39°33' W 072°11'4 3.2
2015-Jun-22 16:18N 39°37' W 072°08'8 2.8
2015-Jun-22 13:32N 39°32' W 072°17'  

Dump ship's entire track history